Flight Track Log - Related Links

Times and Time Zones

All times are in EDT time to prevent confusion due to time zone crossing. See the RPA4928 flight status page for this flight to view local times or setup timezone preferences in your user account.


Time Position Orientation Groundspeed Altitude Reporting Facility
EDT Latitude Longitude Course Direction KTS MPH feet Rate Location/Type
Wed 10:17:06 PM 39.9672 -104.8544 288° West 267 307 10,000  Level Denver Center
Wed 10:18:07 PM 39.9761 -104.9725 276° West 300 345 11,000 1,463 Climbing Denver Center
Wed 10:19:09 PM 39.9858 -105.0831 277° West 306 352 13,000 1,839 Climbing Denver Center
Wed 10:20:11 PM 39.9939 -105.1875 276° West 294 338 14,800 1,790 Climbing Denver Center
Wed 10:21:00 PM 39.9189 -105.1921 288° West  Level FlightAware Approximate
Wed 10:21:13 PM 40.0025 -105.2983 276° West 289 333 16,700  Level Denver Center
Wed 10:22:00 PM 39.9440 -105.2925 288° West  Level FlightAware Approximate
Wed 10:22:14 PM 40.0103 -105.3994 276° West 279 321 18,500  Level Denver Center
Wed 10:23:16 PM 40.0183 -105.4981 276° West 274 315 19,800 1,258 Climbing Denver Center
Wed 10:24:18 PM 40.0269 -105.5978 276° West 274 315 21,100 1,024 Climbing Denver Center
Wed 10:25:19 PM 40.0314 -105.6719 274° West 269 310 21,900 439 Climbing Denver Center
Wed 10:26:21 PM 40.0250 -105.8228 267° West 298 343 22,000 -132 Climbing Denver Center
Wed 10:27:35 PM 40.0206 -105.9383 267° West 317 365 21,600 -1,103 Descending Denver Center
Wed 10:28:37 PM 40.0178 -106.0717 268° West 303 349 19,500 -1,805 Descending Denver Center
Wed 10:29:38 PM 40.0144 -106.1764 268° West 276 318 17,900 -1,561 Descending Denver Center
Wed 10:30:40 PM 40.0114 -106.2783 268° West 277 319 16,300 -1,403 Descending Denver Center
Wed 10:31:42 PM 40.0086 -106.3681 268° West 268 308 15,000 -1,122 Descending Denver Center
Wed 10:32:43 PM 39.9975 -106.4403 259° West 248 285 14,000 -585 Descending Denver Center
Wed 10:33:45 PM 39.9436 -106.4714 204° Southwest 223 257 13,800 -98 Descending Denver Center
Wed 10:34:46 PM 39.8858 -106.4919 195° South 219 252 13,800  Level Denver Center
Wed 10:35:48 PM 39.8300 -106.5139 197° South 215 247 13,800 -98 Level Denver Center
Wed 10:36:49 PM 39.7753 -106.5386 199° South 209 241 13,600 -439 Descending Denver Center
Wed 10:37:51 PM 39.7150 -106.5661 199° South 209 241 12,900 -629 Descending Denver Center
Wed 10:38:53 PM 39.6864 -106.6189 235° Southwest 198 228 12,300 -878 Descending Denver Center
Wed 10:39:54 PM 39.6781 -106.6806 260° West 178 205 11,100 -1,220 Descending Denver Center
Wed 10:40:56 PM 39.6689 -106.7386 258° West 170 196 9,800 -1,073 Descending Denver Center
Wed 10:41:57 PM 39.6614 -106.7853 258° West 141 162 8,900 -1,122 Descending Denver Center
Wed 10:42:59 PM 39.6517 -106.8444 258° West 140 161 7,500 -1,065 Descending Denver Center
Wed 10:44:01 PM 39.6447 -106.8922 259° West 139 160 6,700 -488 Descending Denver Center
Wed 10:45:02 PM 39.6403 -106.9286 261° West 139 160 6,500 -197 Descending Denver Center

Login

Don't have an account? Register now (free) for customized features, flight alerts, and more!